Terminal Aerodrome Forecast
Issued by NWS

Home | Current Version | Previous Version | Text Only | Print | Product List | Glossary On
Versions: 1 2 3 4 5 6 7 8 9 10 11 12 13 14 15 16 17 18 19 20 21 22 23 24 25 26 27 28
000
FTUS42 KILM 201720
TAFCRE
TAF
KCRE 201720Z 2018/2118 17008KT P6SM BKN035
     FM202200 18003KT 6SM BR SCT035
     FM210700 VRB03KT 1SM BR BKN002
      TEMPO 2109/2113 1/4SM FG VV001
     FM211500 20005KT P6SM SCT005=

USA.gov is the U.S. government's official web portal to all federal, state and local government web resources and services.